createdAt,value
2019-03-20T00:00:03.504Z,7.7
2019-03-20T00:10:17.013Z,7.7
2019-03-20T00:20:37.406Z,9.1
2019-03-20T00:31:05.138Z,7.7
2019-03-20T00:41:26.269Z,7.0
2019-03-20T00:51:37.477Z,5.1
2019-03-20T01:02:04.089Z,4.1
2019-03-20T01:12:17.936Z,6.3
2019-03-20T01:22:37.766Z,4.9
2019-03-20T01:33:04.688Z,6.9
2019-03-20T01:43:25.303Z,6.9
2019-03-20T01:53:50.905Z,8.6
2019-03-20T02:04:16.126Z,6.6
2019-03-20T02:14:30.308Z,7.7
2019-03-20T02:24:57.561Z,7.1
2019-03-20T02:35:22.332Z,6.4
2019-03-20T02:45:54.785Z,6.2
2019-03-20T02:56:13.457Z,7.9
2019-03-20T03:06:24.637Z,9.0
2019-03-20T03:17:33.437Z,10.8
2019-03-20T03:28:15.131Z,8.1
2019-03-20T03:39:03.138Z,10.6
2019-03-20T03:49:22.828Z,7.6
2019-03-20T04:00:16.351Z,9.6
2019-03-20T04:11:24.896Z,10.1
2019-03-20T04:22:42.589Z,13.0
2019-03-20T04:33:00.727Z,4.4
2019-03-20T04:43:59.621Z,4.2
2019-03-20T04:58:23.252Z,12.4
2019-03-20T05:11:30.650Z,9.9
2019-03-20T05:21:59.855Z,5.2
2019-03-20T05:32:53.451Z,7.3
2019-03-20T05:43:53.262Z,4.4
2019-03-20T05:54:53.029Z,8.5
2019-03-20T06:06:47.326Z,7.8
2019-03-20T06:17:38.746Z,7.8
2019-03-20T06:28:34.199Z,6.7
2019-03-20T06:38:51.193Z,4.0
2019-03-20T06:49:42.446Z,4.4
2019-03-20T07:00:38.009Z,5.8
2019-03-20T07:10:52.021Z,5.0
2019-03-20T07:22:19.889Z,4.4
2019-03-20T07:33:19.579Z,5.7
2019-03-20T07:44:12.905Z,6.7
2019-03-20T07:55:08.536Z,6.1
2019-03-20T08:05:28.879Z,3.9
2019-03-20T08:15:53.393Z,4.9
2019-03-20T08:26:42.735Z,8.0
2019-03-20T08:39:00.304Z,4.7
2019-03-20T08:49:26.361Z,4.4
2019-03-20T08:59:59.354Z,5.0
2019-03-20T09:11:18.643Z,7.5
2019-03-20T09:22:15.581Z,7.6
2019-03-20T09:33:07.431Z,6.4
2019-03-20T09:46:17.072Z,9.6
2019-03-20T09:56:35.125Z,6.6
2019-03-20T10:07:44.580Z,8.2
2019-03-20T10:18:02.358Z,7.2
2019-03-20T10:28:52.687Z,9.0
2019-03-20T10:39:50.483Z,5.0
2019-03-20T10:50:44.270Z,9.7
2019-03-20T11:02:28.767Z,4.8
2019-03-20T11:13:18.528Z,6.3
2019-03-20T11:25:57.057Z,5.8
2019-03-20T11:42:40.677Z,6.2
2019-03-20T11:53:30.271Z,5.6
2019-03-20T12:04:39.795Z,6.7
2019-03-20T12:16:29.376Z,8.4
2019-03-20T12:28:05.344Z,7.3
2019-03-20T12:45:37.369Z,7.7
2019-03-20T13:22:58.746Z,6.4
2019-03-20T13:34:18.981Z,8.5
2019-03-20T13:45:10.151Z,4.6
2019-03-20T13:56:41.913Z,6.6
2019-03-20T17:26:57.286Z,10.9
2019-03-20T17:38:17.284Z,10.4
2019-03-20T17:49:05.418Z,11.9
2019-03-20T18:00:02.090Z,11.7
2019-03-20T18:11:28.339Z,12.6
2019-03-20T18:22:39.887Z,11.3
2019-03-20T18:35:33.527Z,12.4
2019-03-20T18:46:26.901Z,14.7
2019-03-20T18:57:17.854Z,15.4
2019-03-20T19:08:13.013Z,11.2
2019-03-20T20:59:50.854Z,21.3
2019-03-20T21:11:09.589Z,17.5
2019-03-20T21:22:05.046Z,12.1
2019-03-20T21:34:50.301Z,21.4
2019-03-20T21:48:56.190Z,23.4
2019-03-20T22:03:19.163Z,29.7
2019-03-20T22:14:32.025Z,18.2
2019-03-20T22:26:18.272Z,21.8
2019-03-20T22:38:19.739Z,20.6
2019-03-20T22:49:21.675Z,17.8
2019-03-20T23:05:59.353Z,25.7
2019-03-20T23:17:00.225Z,23.0
2019-03-20T23:29:16.140Z,27.0
2019-03-20T23:40:49.643Z,24.3
2019-03-20T23:51:26.240Z,15.0
